createdAt,value
2022-09-28T00:01:25.061Z,11.60
2022-09-28T00:03:54.532Z,11.54
2022-09-28T00:06:24.512Z,11.50
2022-09-28T00:08:51.598Z,11.49
2022-09-28T00:11:20.764Z,11.51
2022-09-28T00:13:51.799Z,11.46
2022-09-28T00:16:20.796Z,11.43
2022-09-28T00:18:47.423Z,11.48
2022-09-28T00:21:17.434Z,11.46
2022-09-28T00:24:03.272Z,11.48
2022-09-28T00:26:32.961Z,11.46
2022-09-28T00:29:01.603Z,11.44
2022-09-28T00:31:32.663Z,11.45
2022-09-28T00:34:00.795Z,11.44
2022-09-28T00:36:31.720Z,11.41
2022-09-28T00:38:59.876Z,11.41
2022-09-28T00:41:28.016Z,11.40
2022-09-28T00:44:26.416Z,11.26
2022-09-28T00:47:07.398Z,11.22
2022-09-28T00:49:38.639Z,11.25
2022-09-28T00:52:09.649Z,11.23
2022-09-28T00:54:36.645Z,11.22
2022-09-28T00:57:04.259Z,11.16
2022-09-28T00:59:33.374Z,11.14
2022-09-28T01:02:01.306Z,11.12
2022-09-28T01:04:30.174Z,11.13
2022-09-28T01:06:58.950Z,11.15
2022-09-28T01:09:27.609Z,11.20
2022-09-28T01:11:55.237Z,11.18
2022-09-28T01:14:25.721Z,11.19
2022-09-28T01:17:06.749Z,11.15
2022-09-28T01:19:58.915Z,11.16
2022-09-28T01:22:34.578Z,11.14
2022-09-28T01:25:16.749Z,11.08
2022-09-28T01:27:50.463Z,11.04
2022-09-28T01:30:19.914Z,11.03
2022-09-28T01:33:07.172Z,10.95
2022-09-28T01:35:43.382Z,10.89
2022-09-28T01:38:17.509Z,10.80
2022-09-28T01:40:46.297Z,10.76
2022-09-28T01:43:19.122Z,10.74
2022-09-28T01:45:51.625Z,10.70
2022-09-28T01:48:25.613Z,10.60
2022-09-28T01:50:57.954Z,10.52
2022-09-28T01:53:31.851Z,10.46
2022-09-28T01:56:04.169Z,10.38
2022-09-28T01:58:37.895Z,10.35
2022-09-28T02:01:13.184Z,10.34
2022-09-28T02:03:46.899Z,10.29
2022-09-28T02:06:22.280Z,10.21
2022-09-28T02:08:56.550Z,10.20
2022-09-28T02:11:23.750Z,10.16
2022-09-28T02:13:52.789Z,10.16
2022-09-28T02:16:39.411Z,10.14
2022-09-28T02:19:08.842Z,10.13
2022-09-28T02:22:27.532Z,10.11
2022-09-28T02:25:09.850Z,10.09
2022-09-28T02:27:36.438Z,10.09
2022-09-28T02:30:06.072Z,10.06
2022-09-28T02:32:35.182Z,10.04
2022-09-28T02:35:01.839Z,9.99
2022-09-28T02:37:28.400Z,10.01
2022-09-28T02:39:55.459Z,10.04
2022-09-28T02:42:33.117Z,10.05
2022-09-28T02:45:08.654Z,10.04
2022-09-28T02:47:50.687Z,10.06
2022-09-28T02:50:54.696Z,10.08
2022-09-28T02:53:33.469Z,10.05
2022-09-28T02:56:15.104Z,10.08
2022-09-28T02:59:01.333Z,10.10
2022-09-28T03:01:30.932Z,10.10
2022-09-28T03:04:00.193Z,10.07
2022-09-28T03:06:26.681Z,10.06
2022-09-28T03:09:01.057Z,10.04
2022-09-28T03:11:36.436Z,10.07
2022-09-28T03:14:04.254Z,10.07
2022-09-28T03:16:32.239Z,10.05
2022-09-28T03:18:58.895Z,10.07
2022-09-28T03:21:25.511Z,10.07
2022-09-28T03:23:52.047Z,10.10
2022-09-28T03:26:19.836Z,10.13
2022-09-28T03:28:46.797Z,10.13
2022-09-28T03:31:13.414Z,10.13
2022-09-28T03:33:39.960Z,10.13
2022-09-28T03:36:08.666Z,10.11
2022-09-28T03:38:35.492Z,10.10
2022-09-28T03:41:02.088Z,10.08
2022-09-28T03:43:30.502Z,10.07
2022-09-28T03:46:00.412Z,10.07
2022-09-28T03:48:32.421Z,10.03
2022-09-28T03:51:05.457Z,10.02
2022-09-28T03:53:33.056Z,9.99
2022-09-28T03:56:08.338Z,10.02
2022-09-28T03:58:34.891Z,10.04
2022-09-28T04:01:03.721Z,10.04
2022-09-28T04:03:31.196Z,10.06
2022-09-28T04:05:58.089Z,10.04
2022-09-28T04:08:24.653Z,10.07
2022-09-28T04:10:51.425Z,10.10
2022-09-28T04:13:17.980Z,10.10
2022-09-28T04:15:53.298Z,10.09
2022-09-28T04:18:20.432Z,10.07
2022-09-28T04:20:48.223Z,10.06
2022-09-28T04:23:17.684Z,10.08
2022-09-28T04:25:47.866Z,10.08
2022-09-28T04:28:33.034Z,10.03
2022-09-28T04:30:59.663Z,10.02
2022-09-28T04:33:26.204Z,10.02
2022-09-28T04:35:52.727Z,10.01
2022-09-28T04:38:30.872Z,10.00
2022-09-28T04:41:06.127Z,9.97
2022-09-28T04:43:32.682Z,9.90
2022-09-28T04:46:02.802Z,9.86
2022-09-28T04:48:29.638Z,9.82
2022-09-28T04:50:57.186Z,9.75
2022-09-28T04:53:25.068Z,9.70
2022-09-28T04:55:59.618Z,9.69
2022-09-28T04:58:26.765Z,9.71
2022-09-28T05:00:54.382Z,9.71
2022-09-28T05:03:21.166Z,9.76
2022-09-28T05:05:49.103Z,9.74
2022-09-28T05:08:16.257Z,9.75
2022-09-28T05:10:43.144Z,9.78
2022-09-28T05:13:11.623Z,9.75
2022-09-28T05:15:39.584Z,9.68
2022-09-28T05:18:07.367Z,9.67
2022-09-28T05:20:39.688Z,9.68
2022-09-28T05:23:06.230Z,9.70
2022-09-28T05:25:33.964Z,9.73
2022-09-28T05:28:01.822Z,9.74
2022-09-28T05:30:28.337Z,9.76
2022-09-28T05:32:54.910Z,9.82
2022-09-28T05:35:21.449Z,9.82
2022-09-28T05:37:48.178Z,9.68
2022-09-28T05:40:15.058Z,9.57
2022-09-28T05:42:42.368Z,9.53
2022-09-28T05:45:10.245Z,9.55
2022-09-28T05:47:41.113Z,9.60
2022-09-28T05:50:11.629Z,9.60
2022-09-28T05:52:38.865Z,9.59
2022-09-28T05:55:06.857Z,9.57
2022-09-28T05:57:33.472Z,9.44
2022-09-28T06:00:00.145Z,9.39
2022-09-28T06:02:26.802Z,9.41
2022-09-28T06:04:53.924Z,9.44
2022-09-28T06:07:23.903Z,9.42
2022-09-28T06:09:50.454Z,9.45
2022-09-28T06:12:17.067Z,9.49
2022-09-28T06:14:44.176Z,9.48
2022-09-28T06:17:10.732Z,9.39
2022-09-28T06:19:37.270Z,9.41
2022-09-28T06:22:03.823Z,9.42
2022-09-28T06:24:30.357Z,9.35
2022-09-28T06:26:56.913Z,9.34
2022-09-28T06:29:23.414Z,9.29
2022-09-28T06:31:49.924Z,9.31
2022-09-28T06:34:17.321Z,9.40
2022-09-28T06:36:43.966Z,9.48
2022-09-28T06:39:10.533Z,9.43
2022-09-28T06:41:37.069Z,9.42
2022-09-28T06:44:03.785Z,9.33
2022-09-28T06:46:31.476Z,9.30
2022-09-28T06:48:58.770Z,9.35
2022-09-28T06:51:25.296Z,9.41
2022-09-28T06:53:53.908Z,9.49
2022-09-28T06:56:21.087Z,9.53
2022-09-28T06:58:48.112Z,9.59
2022-09-28T07:01:14.746Z,9.67
2022-09-28T07:03:41.345Z,9.67
2022-09-28T07:06:11.441Z,9.67
2022-09-28T07:08:38.277Z,9.71
2022-09-28T07:11:06.951Z,9.73
2022-09-28T07:13:49.698Z,9.78
2022-09-28T07:16:17.423Z,9.85
2022-09-28T07:18:44.254Z,9.90
2022-09-28T07:21:20.266Z,9.97
2022-09-28T07:23:54.347Z,10.05
2022-09-28T07:26:24.032Z,10.09
2022-09-28T07:28:51.072Z,10.06
2022-09-28T07:31:17.720Z,10.04
2022-09-28T07:33:44.364Z,10.05
2022-09-28T07:36:10.881Z,10.10
2022-09-28T07:38:38.321Z,10.12
2022-09-28T07:41:22.528Z,10.17
2022-09-28T07:43:49.883Z,10.19
2022-09-28T07:46:17.581Z,10.24
2022-09-28T07:48:45.898Z,10.26
2022-09-28T07:51:12.649Z,10.30
2022-09-28T07:53:39.255Z,10.33
2022-09-28T07:56:07.997Z,10.38
2022-09-28T07:58:36.585Z,10.46
2022-09-28T08:01:06.522Z,10.52
2022-09-28T08:03:33.850Z,10.58
2022-09-28T08:06:09.877Z,10.62
2022-09-28T08:08:36.640Z,10.63
2022-09-28T08:11:03.641Z,10.58
2022-09-28T08:13:31.115Z,10.60
2022-09-28T08:16:01.582Z,10.64
2022-09-28T08:18:28.198Z,10.68
2022-09-28T08:21:13.285Z,10.75
2022-09-28T08:23:39.811Z,10.84
2022-09-28T08:26:06.710Z,10.87
2022-09-28T08:28:33.478Z,10.89
2022-09-28T08:31:04.706Z,10.97
2022-09-28T08:33:31.366Z,11.10
2022-09-28T08:35:59.283Z,11.21
2022-09-28T08:38:28.820Z,11.28
2022-09-28T08:41:19.136Z,11.32
2022-09-28T08:43:54.634Z,11.34
2022-09-28T08:46:27.012Z,11.36
2022-09-28T08:49:24.563Z,11.40
2022-09-28T08:52:23.381Z,11.50
2022-09-28T08:55:02.344Z,11.56
2022-09-28T08:57:36.263Z,11.63
2022-09-28T09:00:09.624Z,11.68
2022-09-28T09:02:39.804Z,11.73
2022-09-28T09:05:13.825Z,11.78
2022-09-28T09:07:49.009Z,11.84
2022-09-28T09:10:36.908Z,11.90
2022-09-28T09:13:24.992Z,11.98
2022-09-28T09:15:51.523Z,12.04
2022-09-28T09:18:33.250Z,12.08
2022-09-28T09:21:09.813Z,12.15
2022-09-28T09:23:54.217Z,12.18
2022-09-28T09:26:39.679Z,12.25
2022-09-28T09:29:21.410Z,12.32
2022-09-28T09:32:17.523Z,12.42
2022-09-28T09:35:07.727Z,12.45
2022-09-28T09:37:34.622Z,12.49
2022-09-28T09:40:26.370Z,12.55
2022-09-28T09:43:29.526Z,12.60
2022-09-28T09:46:11.823Z,12.63
2022-09-28T09:48:41.448Z,12.67
2022-09-28T09:51:18.483Z,12.68
2022-09-28T09:53:52.893Z,12.72
2022-09-28T09:56:31.650Z,12.81
2022-09-28T09:59:06.364Z,12.89
2022-09-28T10:01:37.773Z,12.90
2022-09-28T10:04:07.970Z,12.93
2022-09-28T10:06:36.618Z,13.02
2022-09-28T10:09:45.785Z,13.06
2022-09-28T10:12:18.856Z,13.16
2022-09-28T10:14:46.421Z,13.24
2022-09-28T10:17:19.772Z,13.30
2022-09-28T10:19:46.458Z,13.37
2022-09-28T10:22:21.532Z,13.46
2022-09-28T10:24:51.730Z,13.55
2022-09-28T10:27:23.974Z,13.62
2022-09-28T10:29:59.324Z,13.67
2022-09-28T10:32:28.295Z,13.73
2022-09-28T10:35:31.440Z,13.76
2022-09-28T10:38:01.804Z,13.84
2022-09-28T10:40:37.597Z,13.85
2022-09-28T10:43:08.262Z,13.91
2022-09-28T10:45:37.419Z,13.98
2022-09-28T10:48:06.141Z,14.01
2022-09-28T10:50:32.714Z,14.08
2022-09-28T10:53:20.581Z,14.09
2022-09-28T10:55:59.395Z,14.13
2022-09-28T10:58:29.387Z,14.14
2022-09-28T11:01:02.069Z,14.16
2022-09-28T11:03:30.476Z,14.19
2022-09-28T11:06:01.524Z,14.16
2022-09-28T11:08:44.578Z,14.19
2022-09-28T11:11:16.335Z,14.29
2022-09-28T11:13:49.889Z,14.40
2022-09-28T11:16:44.191Z,14.48
2022-09-28T11:19:20.220Z,14.56
2022-09-28T11:21:46.969Z,14.63
2022-09-28T11:24:23.666Z,14.72
2022-09-28T11:26:52.993Z,14.78
2022-09-28T11:29:38.929Z,14.76
2022-09-28T11:32:06.299Z,14.80
2022-09-28T11:34:58.057Z,14.89
2022-09-28T11:37:27.802Z,14.94
2022-09-28T11:40:13.303Z,14.91
2022-09-28T11:43:10.663Z,15.02
2022-09-28T11:45:51.056Z,15.12
2022-09-28T11:48:23.923Z,15.25
2022-09-28T11:50:58.489Z,15.31
2022-09-28T11:53:37.134Z,15.39
2022-09-28T11:56:27.000Z,15.46
2022-09-28T11:58:58.036Z,15.51
2022-09-28T12:01:46.474Z,15.53
2022-09-28T12:04:19.040Z,15.58
2022-09-28T12:07:31.464Z,15.62
2022-09-28T12:10:10.380Z,15.70
2022-09-28T12:12:54.289Z,15.74
2022-09-28T12:15:26.008Z,15.79
2022-09-28T12:18:07.819Z,15.92
2022-09-28T12:20:40.196Z,16.07
2022-09-28T12:23:31.044Z,16.17
2022-09-28T12:26:14.553Z,16.24
2022-09-28T12:28:49.849Z,16.36
2022-09-28T12:31:54.692Z,16.50
2022-09-28T12:34:22.176Z,16.55
2022-09-28T12:37:33.557Z,16.64
2022-09-28T12:40:18.306Z,16.71
2022-09-28T12:43:06.883Z,16.79
2022-09-28T12:46:10.836Z,16.92
2022-09-28T12:51:57.664Z,16.99
2022-09-28T12:54:47.324Z,16.99
2022-09-28T12:57:48.247Z,16.96
2022-09-28T13:00:22.249Z,16.97
2022-09-28T13:03:29.078Z,16.99
2022-09-28T13:06:34.320Z,16.98
2022-09-28T13:09:20.719Z,16.93
2022-09-28T13:12:00.000Z,16.92
2022-09-28T13:15:05.009Z,16.92
2022-09-28T13:17:31.491Z,16.86
2022-09-28T13:19:59.193Z,16.86
2022-09-28T13:23:15.053Z,16.84
2022-09-28T13:25:47.916Z,16.80
2022-09-28T13:28:18.664Z,16.74
2022-09-28T13:30:46.068Z,16.70
2022-09-28T13:33:28.914Z,16.61
2022-09-28T13:35:55.426Z,16.59
2022-09-28T13:38:21.905Z,16.54
2022-09-28T13:41:06.790Z,16.57
2022-09-28T13:43:53.537Z,16.61
2022-09-28T13:46:36.775Z,16.65
2022-09-28T13:49:26.907Z,16.59
2022-09-28T13:52:05.155Z,16.60
2022-09-28T13:55:16.681Z,16.57
2022-09-28T13:58:04.551Z,16.52
2022-09-28T14:00:54.227Z,16.48
2022-09-28T14:03:43.396Z,16.45
2022-09-28T14:06:29.992Z,16.33
2022-09-28T14:09:15.922Z,16.28
2022-09-28T14:11:55.014Z,16.24
2022-09-28T14:14:26.606Z,16.14
2022-09-28T14:17:19.311Z,15.99
2022-09-28T14:19:52.251Z,15.98
2022-09-28T14:22:57.818Z,16.00
2022-09-28T14:25:27.789Z,15.89
2022-09-28T14:28:03.353Z,15.86
2022-09-28T14:30:41.967Z,15.84
2022-09-28T14:33:26.615Z,15.69
2022-09-28T14:36:05.282Z,15.66
2022-09-28T14:39:05.642Z,15.69
2022-09-28T14:41:36.476Z,15.63
2022-09-28T14:44:08.500Z,15.50
2022-09-28T14:46:40.597Z,15.48
2022-09-28T14:49:19.764Z,15.34
2022-09-28T14:51:58.562Z,15.32
2022-09-28T14:54:27.703Z,15.27
2022-09-28T14:57:03.112Z,15.28
2022-09-28T14:59:36.225Z,15.25
2022-09-28T15:02:13.390Z,15.22
2022-09-28T15:04:48.883Z,15.15
2022-09-28T15:07:28.718Z,15.01
2022-09-28T15:09:59.831Z,14.96
2022-09-28T15:12:28.935Z,14.95
2022-09-28T15:14:57.425Z,14.86
2022-09-28T15:17:29.196Z,14.85
2022-09-28T15:20:00.840Z,14.84
2022-09-28T15:22:27.554Z,14.76
2022-09-28T15:25:02.000Z,14.68
2022-09-28T15:27:38.024Z,14.60
2022-09-28T15:30:25.442Z,14.59
2022-09-28T15:32:56.605Z,14.47
2022-09-28T15:35:26.561Z,14.44
2022-09-28T15:37:55.034Z,14.42
2022-09-28T15:40:33.675Z,14.37
2022-09-28T15:43:00.571Z,14.36
2022-09-28T15:45:37.062Z,14.37
2022-09-28T15:48:43.116Z,14.34
2022-09-28T15:51:11.597Z,14.31
2022-09-28T15:53:51.342Z,14.23
2022-09-28T15:56:17.881Z,14.19
2022-09-28T15:59:13.031Z,14.11
2022-09-28T16:01:42.484Z,14.14
2022-09-28T16:04:33.738Z,14.13
2022-09-28T16:07:09.371Z,14.05
2022-09-28T16:09:55.661Z,14.03
2022-09-28T16:12:31.256Z,14.08
2022-09-28T16:15:03.964Z,14.00
2022-09-28T16:17:33.642Z,13.98
2022-09-28T16:20:18.897Z,13.91
2022-09-28T16:22:45.969Z,13.90
2022-09-28T16:25:19.579Z,13.82
2022-09-28T16:27:46.234Z,13.83
2022-09-28T16:30:27.286Z,13.80
2022-09-28T16:33:05.798Z,13.77
2022-09-28T16:35:50.930Z,13.68
2022-09-28T16:38:19.023Z,13.69
2022-09-28T16:40:50.664Z,13.62
2022-09-28T16:43:30.280Z,13.57
2022-09-28T16:46:04.450Z,13.52
2022-09-28T16:48:34.308Z,13.53
2022-09-28T16:51:00.854Z,13.54
2022-09-28T16:53:46.072Z,13.59
2022-09-28T16:56:13.454Z,13.63
2022-09-28T16:58:40.151Z,13.60
2022-09-28T17:01:09.601Z,13.56
2022-09-28T17:03:36.296Z,13.52
2022-09-28T17:06:06.117Z,13.55
2022-09-28T17:08:35.392Z,13.53
2022-09-28T17:11:24.507Z,13.53
2022-09-28T17:13:51.913Z,13.51
2022-09-28T17:16:42.682Z,13.47
2022-09-28T17:19:18.128Z,13.46
2022-09-28T17:21:44.992Z,13.44
2022-09-28T17:24:11.551Z,13.46
2022-09-28T17:26:38.183Z,13.45
2022-09-28T17:29:08.720Z,13.42
2022-09-28T17:31:35.265Z,13.44
2022-09-28T17:34:01.834Z,13.43
2022-09-28T17:36:30.414Z,13.37
2022-09-28T17:38:57.288Z,13.31
2022-09-28T17:41:24.000Z,13.37
2022-09-28T17:43:50.537Z,13.32
2022-09-28T17:46:28.338Z,13.30
2022-09-28T17:48:59.571Z,13.31
2022-09-28T17:51:31.138Z,13.30
2022-09-28T17:53:58.727Z,13.26
2022-09-28T17:56:29.710Z,13.19
2022-09-28T17:59:07.462Z,13.20
2022-09-28T18:01:37.585Z,13.22
2022-09-28T18:04:06.654Z,13.21
2022-09-28T18:06:37.422Z,13.14
2022-09-28T18:09:04.970Z,13.09
2022-09-28T18:11:32.583Z,13.10
2022-09-28T18:13:59.189Z,13.08
2022-09-28T18:16:27.986Z,13.08
2022-09-28T18:18:54.956Z,13.03
2022-09-28T18:21:21.740Z,12.96
2022-09-28T18:23:48.587Z,12.84
2022-09-28T18:26:16.833Z,12.80
2022-09-28T18:28:43.413Z,12.87
2022-09-28T18:31:12.228Z,12.94
2022-09-28T18:33:39.442Z,12.96
2022-09-28T18:36:07.424Z,12.96
2022-09-28T18:38:37.910Z,12.92
2022-09-28T18:41:16.143Z,12.93
2022-09-28T18:43:48.876Z,12.88
2022-09-28T18:46:18.230Z,12.90
2022-09-28T18:48:44.955Z,12.93
2022-09-28T18:51:12.487Z,12.92
2022-09-28T18:53:39.786Z,12.91
2022-09-28T18:56:08.667Z,12.91
2022-09-28T18:58:39.891Z,12.94
2022-09-28T19:04:00.422Z,12.91
2022-09-28T19:06:27.751Z,12.89
2022-09-28T19:08:57.921Z,12.90
2022-09-28T19:11:25.323Z,12.94
2022-09-28T19:13:53.525Z,12.99
2022-09-28T19:16:22.481Z,13.01
2022-09-28T19:18:51.382Z,12.95
2022-09-28T19:21:18.089Z,12.96
2022-09-28T19:23:49.261Z,12.94
2022-09-28T19:26:22.594Z,12.95
2022-09-28T19:28:49.243Z,12.96
2022-09-28T19:31:16.276Z,12.96
2022-09-28T19:33:43.817Z,12.94
2022-09-28T19:36:13.570Z,12.98
2022-09-28T19:38:40.752Z,12.99
2022-09-28T19:41:12.399Z,12.99
2022-09-28T19:43:40.708Z,13.05
2022-09-28T19:46:08.246Z,13.03
2022-09-28T19:48:35.452Z,12.99
2022-09-28T19:51:05.024Z,12.96
2022-09-28T19:53:36.684Z,12.98
2022-09-28T19:56:05.398Z,13.00
2022-09-28T19:58:34.555Z,12.96
2022-09-28T20:01:04.569Z,12.95
2022-09-28T20:03:30.974Z,12.97
2022-09-28T20:05:58.650Z,12.95
2022-09-28T20:08:26.259Z,12.95
2022-09-28T20:10:54.583Z,12.89
2022-09-28T20:13:21.640Z,12.89
2022-09-28T20:15:48.377Z,12.85
2022-09-28T20:18:15.238Z,12.81
2022-09-28T20:20:42.586Z,12.81
2022-09-28T20:23:09.323Z,12.81
2022-09-28T20:25:35.927Z,12.79
2022-09-28T20:28:02.359Z,12.85
2022-09-28T20:30:28.764Z,12.85
2022-09-28T20:32:55.189Z,12.84
2022-09-28T20:35:32.253Z,12.80
2022-09-28T20:38:07.786Z,12.83
2022-09-28T20:40:35.257Z,12.81
2022-09-28T20:43:01.864Z,12.76
2022-09-28T20:45:28.307Z,12.77
2022-09-28T20:47:54.725Z,12.75
2022-09-28T20:50:22.029Z,12.72
2022-09-28T20:52:48.537Z,12.77
2022-09-28T20:55:15.009Z,12.78
2022-09-28T20:57:41.618Z,12.76
2022-09-28T21:00:10.409Z,12.77
2022-09-28T21:02:36.930Z,12.76
2022-09-28T21:05:03.529Z,12.79
2022-09-28T21:07:29.956Z,12.76
2022-09-28T21:09:56.363Z,12.70
2022-09-28T21:12:25.957Z,12.67
2022-09-28T21:14:53.710Z,12.75
2022-09-28T21:17:20.690Z,12.78
2022-09-28T21:19:47.106Z,12.79
2022-09-28T21:22:13.551Z,12.81
2022-09-28T21:24:40.050Z,12.79
2022-09-28T21:27:06.482Z,12.71
2022-09-28T21:29:32.905Z,12.74
2022-09-28T21:31:59.328Z,12.76
2022-09-28T21:34:25.778Z,12.75
2022-09-28T21:36:52.639Z,12.75
2022-09-28T21:39:20.101Z,12.77
2022-09-28T21:41:46.546Z,12.79
2022-09-28T21:44:13.014Z,12.78
2022-09-28T21:46:39.794Z,12.77
2022-09-28T21:49:07.434Z,12.71
2022-09-28T21:51:34.549Z,12.69
2022-09-28T21:54:01.092Z,12.69
2022-09-28T21:56:27.514Z,12.72
2022-09-28T21:58:54.000Z,12.72
2022-09-28T22:01:21.934Z,12.72
2022-09-28T22:03:50.591Z,12.78
2022-09-28T22:06:21.524Z,12.72
2022-09-28T22:08:48.870Z,12.78
2022-09-28T22:11:16.896Z,12.80
2022-09-28T22:13:44.759Z,12.78
2022-09-28T22:16:12.126Z,12.73
2022-09-28T22:18:38.606Z,12.72
2022-09-28T22:21:15.258Z,12.71
2022-09-28T22:23:41.691Z,12.69
2022-09-28T22:26:13.137Z,12.68
2022-09-28T22:28:44.243Z,12.63
2022-09-28T22:31:10.693Z,12.65
2022-09-28T22:33:37.157Z,12.70
2022-09-28T22:36:03.645Z,12.75
2022-09-28T22:38:31.756Z,12.78
2022-09-28T22:40:58.418Z,12.73
2022-09-28T22:43:25.771Z,12.77
2022-09-28T22:46:10.905Z,12.80
2022-09-28T22:48:37.789Z,12.82
2022-09-28T22:51:06.186Z,12.84
2022-09-28T22:53:33.394Z,12.85
2022-09-28T22:56:01.480Z,12.84
2022-09-28T22:58:27.953Z,12.83
2022-09-28T23:00:56.411Z,12.83
2022-09-28T23:03:23.202Z,12.82
2022-09-28T23:05:56.322Z,12.83
2022-09-28T23:08:23.529Z,12.80
2022-09-28T23:10:50.216Z,12.78
2022-09-28T23:13:16.883Z,12.73
2022-09-28T23:15:43.377Z,12.71
2022-09-28T23:18:10.229Z,12.71
2022-09-28T23:20:36.652Z,12.71
2022-09-28T23:23:03.140Z,12.71
2022-09-28T23:25:29.584Z,12.71
2022-09-28T23:27:55.999Z,12.71
2022-09-28T23:30:23.670Z,12.69
2022-09-28T23:32:51.745Z,12.68
2022-09-28T23:35:18.142Z,12.67
2022-09-28T23:37:48.751Z,12.65
2022-09-28T23:40:15.175Z,12.64
2022-09-28T23:42:41.540Z,12.60
2022-09-28T23:45:08.310Z,12.60
2022-09-28T23:47:37.340Z,12.57
2022-09-28T23:50:04.759Z,12.57
2022-09-28T23:52:31.228Z,12.60
2022-09-28T23:54:57.638Z,12.59
2022-09-28T23:57:24.045Z,12.58
2022-09-28T23:59:50.477Z,12.58
